Terminal Aerodrome Forecast
Issued by NWS Austin/San Antonio, TX

Home | Current Version | Previous Version | Text Only | Print | Product List | Glossary On
Versions: 1 2 3 4 5 6 7 8 9 10 11 12 13 14 15 16 17 18 19
000
FTUS44 KEWX 242206 AAB
TAFSAT
TAF AMD
KSAT 242206Z 2422/2524 12010KT P6SM SCT040 BKN250
     FM250100 12010KT P6SM SCT040 OVC150
     FM250600 13008KT P6SM OVC015
     FM250900 13006KT 5SM BR VCSH BKN009 BKN025
     FM251500 14009KT P6SM VCSH BKN015 BKN030
     FM251800 12010KT P6SM VCTS BKN045CB=

USA.gov is the U.S. government's official web portal to all federal, state and local government web resources and services.